Time;durP1;ratioP1;P1;durP2;ratioP2;P2;SDS_P1;SDS_P2;PMS_P1;PMS_P2;Temp;Humidity;BMP_temperature;BMP_pressure;BME280_temperature;BME280_humidity;BME280_pressure;Samples;Min_cycle;Max_cycle;Signal;HPM_P1;HPM_P2
2021/05/28 00:00:54;;;;;;;4.98;3.55;;;;;;;9.93;55.89;100218.28;153964;1096;103267;-72
2021/05/28 00:03:57;;;;;;;4.78;3.85;;;;;;;9.93;55.85;100220.09;153998;1095;103516;-71
2021/05/28 00:07:01;;;;;;;4.77;3.53;;;;;;;9.92;55.69;100213.09;153976;1101;103221;-72
2021/05/28 00:10:07;;;;;;;5.10;3.53;;;;;;;9.92;55.90;100213.09;153944;1101;103115;-71
2021/05/28 00:13:12;;;;;;;6.58;4.33;;;;;;;9.90;56.09;100220.41;154014;1101;103272;-71
2021/05/28 00:16:15;;;;;;;5.57;4.00;;;;;;;9.84;56.32;100219.17;154003;1101;103185;-72
2021/05/28 00:19:19;;;;;;;5.43;3.80;;;;;;;9.81;56.13;100214.99;153987;1101;103148;-71
2021/05/28 00:22:23;;;;;;;4.28;3.70;;;;;;;9.80;56.27;100226.63;154011;1094;103220;-71
2021/05/28 00:25:29;;;;;;;5.83;3.98;;;;;;;9.78;56.20;100215.28;153951;1096;103216;-72
2021/05/28 00:28:32;;;;;;;6.80;4.10;;;;;;;9.78;56.35;100227.77;154041;1094;103214;-71
2021/05/28 00:31:36;;;;;;;5.78;4.15;;;;;;;9.78;56.84;100225.94;153910;1101;103221;-71
2021/05/28 00:34:39;;;;;;;4.93;3.97;;;;;;;9.77;56.53;100221.58;153962;1101;103224;-74
2021/05/28 00:37:43;;;;;;;4.93;4.10;;;;;;;9.76;56.67;100219.92;153930;1101;103586;-69
2021/05/28 00:40:47;;;;;;;5.63;4.50;;;;;;;9.76;56.86;100217.25;153905;1096;103182;-72
2021/05/28 00:43:51;;;;;;;7.10;4.73;;;;;;;9.72;56.77;100221.20;153985;1096;103112;-71
2021/05/28 00:46:55;;;;;;;6.07;4.70;;;;;;;9.76;56.87;100219.92;153990;1101;103243;-71
2021/05/28 00:49:58;;;;;;;5.63;4.40;;;;;;;9.74;56.97;100224.56;153960;1101;103213;-74
2021/05/28 00:53:02;;;;;;;6.67;4.70;;;;;;;9.75;56.74;100226.22;153941;1096;103136;-73
2021/05/28 00:56:06;;;;;;;5.50;4.40;;;;;;;9.73;56.89;100225.53;153788;1101;103157;-71
2021/05/28 00:59:10;;;;;;;4.95;4.18;;;;;;;9.71;56.82;100227.51;153911;1101;103522;-73
2021/05/28 01:02:14;;;;;;;5.53;4.07;;;;;;;9.68;57.03;100226.97;153967;1095;103227;-72
2021/05/28 01:05:18;;;;;;;5.57;3.90;;;;;;;9.68;57.14;100222.50;153915;1101;103157;-71
2021/05/28 01:08:22;;;;;;;5.60;4.20;;;;;;;9.68;57.16;100226.97;153963;1101;103286;-70
2021/05/28 01:11:26;;;;;;;5.08;4.18;;;;;;;9.65;57.10;100222.78;153802;1095;103143;-71
2021/05/28 01:14:30;;;;;;;4.30;3.90;;;;;;;9.62;57.25;100218.59;154050;1101;103119;-70
2021/05/28 01:17:33;;;;;;;5.73;3.98;;;;;;;9.57;56.99;100225.35;153810;1101;103170;-70
2021/05/28 01:20:37;;;;;;;4.57;3.90;;;;;;;9.51;57.36;100223.28;153853;1101;103168;-70
2021/05/28 01:23:41;;;;;;;4.40;3.40;;;;;;;9.51;57.54;100225.94;153778;1101;103125;-70
2021/05/28 01:26:45;;;;;;;7.38;3.38;;;;;;;9.55;57.48;100220.16;153894;1095;103103;-73
2021/05/28 01:29:48;;;;;;;4.40;3.53;;;;;;;9.60;57.62;100217.05;153867;1101;103231;-70
2021/05/28 01:32:53;;;;;;;4.53;3.40;;;;;;;9.67;57.67;100218.14;153955;1101;103768;-71
2021/05/28 01:35:58;;;;;;;4.13;3.53;;;;;;;9.75;57.57;100218.23;153894;1101;103168;-71
2021/05/28 01:39:03;;;;;;;4.95;4.15;;;;;;;9.78;57.46;100222.45;154024;1096;103124;-71
2021/05/28 01:42:07;;;;;;;4.70;3.70;;;;;;;9.77;57.72;100224.25;153973;1096;103164;-71
2021/05/28 01:45:12;;;;;;;4.13;3.33;;;;;;;9.76;57.72;100230.58;153925;1096;103474;-73
2021/05/28 01:48:16;;;;;;;5.27;4.03;;;;;;;9.79;57.80;100229.43;153999;1095;103398;-71
2021/05/28 01:51:20;;;;;;;5.08;3.70;;;;;;;9.78;57.69;100239.26;153975;1101;103221;-71
2021/05/28 01:54:23;;;;;;;5.85;4.20;;;;;;;9.78;57.91;100238.43;153930;1101;103221;-73
2021/05/28 01:57:27;;;;;;;5.65;3.80;;;;;;;9.76;58.09;100238.58;153938;1101;103190;-72
2021/05/28 02:00:31;;;;;;;5.00;3.90;;;;;;;9.75;58.09;100239.55;153883;1101;103136;-70
2021/05/28 02:03:34;;;;;;;4.50;3.60;;;;;;;9.73;58.33;100246.85;153953;1095;103262;-70
2021/05/28 02:06:38;;;;;;;4.80;3.80;;;;;;;9.74;58.38;100243.22;154035;1101;103218;-71
2021/05/28 02:09:42;;;;;;;5.15;3.45;;;;;;;9.77;58.21;100237.56;153949;1096;103221;-73
2021/05/28 02:12:45;;;;;;;4.20;3.63;;;;;;;9.78;58.43;100241.09;153956;1095;103655;-73
2021/05/28 02:15:49;;;;;;;4.43;3.73;;;;;;;9.78;58.68;100249.92;153973;1101;103217;-73
2021/05/28 02:18:53;;;;;;;4.93;3.93;;;;;;;9.76;58.61;100256.39;153970;1096;103291;-73
2021/05/28 02:21:56;;;;;;;5.05;4.20;;;;;;;9.74;58.52;100253.88;154019;1096;103107;-73
2021/05/28 02:25:00;;;;;;;4.88;3.60;;;;;;;9.72;58.93;100254.98;153939;1096;103487;-75
2021/05/28 02:28:04;;;;;;;4.53;3.70;;;;;;;9.73;59.05;100254.84;153938;1101;103560;-73
2021/05/28 02:31:08;;;;;;;4.97;3.67;;;;;;;9.80;58.97;100253.27;153988;1101;103181;-71
2021/05/28 02:34:11;;;;;;;5.53;3.90;;;;;;;9.87;58.99;100260.67;153888;1101;103260;-71
2021/05/28 02:37:15;;;;;;;5.63;4.00;;;;;;;9.90;58.99;100261.22;153808;1096;103139;-71
2021/05/28 02:40:19;;;;;;;5.18;3.88;;;;;;;9.94;59.19;100267.92;153952;1095;103196;-70
2021/05/28 02:43:23;;;;;;;4.88;3.85;;;;;;;9.96;59.05;100257.13;153894;1101;103106;-72
2021/05/28 02:46:29;;;;;;;5.55;4.50;;;;;;;10.00;59.20;100247.83;153798;1096;103133;-71
2021/05/28 02:49:33;;;;;;;6.78;4.73;;;;;;;9.99;59.10;100270.16;153788;1095;103183;-71
2021/05/28 02:52:37;;;;;;;5.93;4.50;;;;;;;10.00;58.86;100269.98;154071;1101;103221;-72
2021/05/28 02:55:40;;;;;;;6.20;4.77;;;;;;;10.03;59.10;100268.88;154054;1101;103099;-72
2021/05/28 02:58:44;;;;;;;6.00;5.00;;;;;;;10.04;59.31;100273.20;153921;1101;103123;-72
2021/05/28 03:01:48;;;;;;;6.53;4.83;;;;;;;10.07;59.28;100280.91;153961;1101;103195;-74
2021/05/28 03:04:51;;;;;;;5.97;4.70;;;;;;;10.10;59.58;100277.92;153943;1096;103230;-72
2021/05/28 03:07:55;;;;;;;6.30;4.70;;;;;;;10.12;59.48;100281.31;154084;1101;103221;-73
2021/05/28 03:10:59;;;;;;;6.13;4.30;;;;;;;10.14;59.20;100287.33;153969;1101;103220;-71
2021/05/28 03:14:03;;;;;;;6.17;4.40;;;;;;;10.17;59.57;100286.19;154152;1101;103221;-72
2021/05/28 03:17:06;;;;;;;6.60;4.55;;;;;;;10.19;59.92;100285.03;153992;1101;103195;-72
2021/05/28 03:20:21;;;;;;;6.58;4.40;;;;;;;10.14;59.68;100287.33;153944;1101;103631;-71
2021/05/28 03:23:25;;;;;;;5.18;4.03;;;;;;;10.21;59.78;100279.56;153872;1101;103167;-73
2021/05/28 03:26:30;;;;;;;8.73;4.33;;;;;;;10.29;59.28;100274.30;153919;1096;103216;-73
2021/05/28 03:29:34;;;;;;;5.87;4.10;;;;;;;10.37;59.41;100279.78;153889;1101;103261;-72
2021/05/28 03:32:37;;;;;;;6.27;4.57;;;;;;;10.47;59.50;100277.03;153950;1101;103253;-72
2021/05/28 03:35:41;;;;;;;5.90;4.30;;;;;;;10.59;59.62;100275.80;153988;1096;103171;-71
2021/05/28 03:38:47;;;;;;;6.78;4.33;;;;;;;10.68;59.68;100281.20;153963;1101;103524;-72
2021/05/28 03:41:50;;;;;;;5.78;4.43;;;;;;;10.75;59.69;100285.78;153923;1101;103142;-72
2021/05/28 03:44:54;;;;;;;6.28;4.30;;;;;;;10.81;59.68;100295.01;153940;1096;103139;-72
2021/05/28 03:47:58;;;;;;;5.88;4.60;;;;;;;10.87;59.43;100291.72;153955;1101;103186;-72
2021/05/28 03:51:01;;;;;;;5.37;4.30;;;;;;;10.97;59.96;100288.95;153913;1094;103212;-71
2021/05/28 03:54:06;;;;;;;5.63;4.37;;;;;;;11.06;59.85;100296.05;153917;1101;103227;-72
2021/05/28 03:57:10;;;;;;;6.03;4.33;;;;;;;11.18;59.80;100299.30;153917;1101;103224;-71
2021/05/28 04:00:19;;;;;;;5.73;4.20;;;;;;;11.29;59.81;100291.03;153942;1096;103218;-72
2021/05/28 04:03:23;;;;;;;6.20;4.45;;;;;;;11.41;59.34;100296.95;154000;1101;103136;-73
2021/05/28 04:06:26;;;;;;;5.45;4.33;;;;;;;11.57;59.21;100301.58;153973;1094;103364;-72
2021/05/28 04:09:30;;;;;;;6.05;4.58;;;;;;;11.72;60.12;100299.13;153969;1101;103566;-74
2021/05/28 04:12:34;;;;;;;6.35;4.55;;;;;;;11.83;59.91;100296.17;153919;1094;103214;-71
2021/05/28 04:15:37;;;;;;;5.93;4.35;;;;;;;11.89;59.74;100290.21;153935;1096;103136;-72
2021/05/28 04:18:41;;;;;;;5.53;4.45;;;;;;;11.93;60.04;100298.75;153969;1096;103141;-73
2021/05/28 04:21:44;;;;;;;4.73;4.00;;;;;;;11.95;60.28;100300.29;153947;1096;103288;-72
2021/05/28 04:24:48;;;;;;;5.43;3.90;;;;;;;12.01;60.35;100301.48;153967;1101;103220;-72
2021/05/28 04:27:52;;;;;;;5.40;4.10;;;;;;;12.06;59.74;100299.14;153941;1101;103218;-72
2021/05/28 04:30:56;;;;;;;5.50;4.00;;;;;;;12.10;60.51;100296.98;153913;1096;103139;-72
2021/05/28 04:33:59;;;;;;;6.15;4.43;;;;;;;12.11;59.64;100296.00;153878;1101;103250;-72
2021/05/28 04:37:03;;;;;;;5.60;4.40;;;;;;;12.14;60.39;100307.22;153934;1101;103295;-72
2021/05/28 04:40:09;;;;;;;5.53;4.03;;;;;;;12.10;60.04;100303.16;154059;1101;103125;-73
2021/05/28 04:43:13;;;;;;;6.07;4.50;;;;;;;12.11;60.45;100299.50;154001;1101;103221;-72
2021/05/28 04:46:17;;;;;;;5.80;4.17;;;;;;;12.14;60.01;100301.87;153979;1096;103141;-72
2021/05/28 04:49:20;;;;;;;4.70;3.90;;;;;;;12.10;60.61;100300.48;153922;1095;103187;-73
2021/05/28 04:52:24;;;;;;;5.47;4.20;;;;;;;12.12;60.06;100301.16;153943;1101;103267;-73
2021/05/28 04:55:28;;;;;;;6.33;4.30;;;;;;;12.12;60.47;100308.36;153997;1101;103263;-73
2021/05/28 04:58:32;;;;;;;4.90;4.10;;;;;;;12.14;60.73;100306.36;154057;1101;103239;-71
2021/05/28 05:01:36;;;;;;;5.30;4.27;;;;;;;12.19;60.78;100304.05;153811;1101;103225;-72
2021/05/28 05:04:40;;;;;;;5.40;4.20;;;;;;;12.29;60.77;100307.41;153852;1101;103195;-75
2021/05/28 05:07:43;;;;;;;5.10;4.33;;;;;;;12.59;60.90;100302.47;153983;1101;103316;-74
2021/05/28 05:10:47;;;;;;;6.20;4.90;;;;;;;12.95;60.98;100302.14;153991;1101;103480;-72
2021/05/28 05:13:50;;;;;;;5.93;5.05;;;;;;;13.31;60.54;100305.33;153984;1101;103499;-74
2021/05/28 05:16:54;;;;;;;5.93;5.00;;;;;;;13.57;61.02;100298.08;154011;1096;103167;-73
2021/05/28 05:19:58;;;;;;;6.55;5.43;;;;;;;13.77;60.61;100302.05;153960;1095;103192;-73
2021/05/28 05:23:02;;;;;;;6.87;5.23;;;;;;;13.90;60.44;100296.15;153949;1101;103375;-73
2021/05/28 05:26:05;;;;;;;5.30;4.80;;;;;;;13.99;60.23;100305.84;153980;1101;103125;-71
2021/05/28 05:29:09;;;;;;;5.75;5.03;;;;;;;14.13;60.36;100305.09;154002;1101;103125;-72
2021/05/28 05:32:14;;;;;;;7.85;5.23;;;;;;;14.32;60.07;100303.00;153960;1101;103128;-72
2021/05/28 05:35:18;;;;;;;5.23;4.65;;;;;;;14.50;60.34;100308.91;153966;1101;103239;-72
2021/05/28 05:38:21;;;;;;;4.90;4.30;;;;;;;14.64;59.96;100306.51;153970;1101;103276;-75
2021/05/28 05:41:27;;;;;;;5.33;4.47;;;;;;;14.81;59.80;100305.38;154024;1096;103129;-73
2021/05/28 05:44:31;;;;;;;5.08;4.10;;;;;;;14.90;59.65;100298.11;154038;1094;103144;-74
2021/05/28 05:47:35;;;;;;;5.23;3.57;;;;;;;14.83;59.03;100300.66;154036;1101;103164;-74
2021/05/28 05:50:39;;;;;;;4.73;4.00;;;;;;;14.74;59.46;100299.04;154029;1101;103547;-74
2021/05/28 05:53:42;;;;;;;4.20;3.77;;;;;;;14.70;59.98;100303.10;153957;1101;103564;-73
2021/05/28 05:56:46;;;;;;;5.15;4.13;;;;;;;14.82;59.72;100307.06;153994;1096;103256;-73
2021/05/28 05:59:49;;;;;;;4.80;3.93;;;;;;;14.95;59.56;100309.13;154035;1101;103200;-75
2021/05/28 06:02:53;;;;;;;5.30;4.10;;;;;;;15.05;59.41;100316.94;153976;1101;103560;-75
2021/05/28 06:05:58;;;;;;;3.30;3.00;;;;;;;15.11;58.74;100309.00;153981;1101;103132;-73
2021/05/28 06:09:01;;;;;;;4.45;3.78;;;;;;;14.99;59.26;100304.23;153968;1101;103486;-73
2021/05/28 06:12:07;;;;;;;4.40;3.55;;;;;;;15.05;59.27;100311.56;154035;1101;103190;-72
2021/05/28 06:29:34;;;;;;;3.03;2.73;;;;;;;14.68;58.37;100310.50;154236;1090;103121;-77
2021/05/28 06:32:38;;;;;;;3.40;3.10;;;;;;;14.54;58.76;100320.97;154064;1095;103388;-77
2021/05/28 06:35:42;;;;;;;4.20;3.17;;;;;;;14.66;59.08;100307.99;154005;1101;103189;-76
2021/05/28 06:38:45;;;;;;;4.43;4.03;;;;;;;14.78;58.98;100312.95;154008;1101;103096;-74
2021/05/28 06:41:49;;;;;;;4.00;3.60;;;;;;;14.84;58.97;100313.09;154017;1096;103190;-74
2021/05/28 06:44:53;;;;;;;4.87;3.10;;;;;;;14.99;58.80;100313.15;154007;1101;103144;-75
2021/05/28 06:47:56;;;;;;;3.77;2.80;;;;;;;15.18;58.56;100311.78;154159;1096;103218;-77
2021/05/28 06:51:00;;;;;;;3.17;2.87;;;;;;;15.48;58.43;100309.16;154119;1101;103208;-75
2021/05/28 06:54:04;;;;;;;3.43;2.80;;;;;;;15.76;58.05;100304.03;154017;1096;103116;-74
2021/05/28 06:57:08;;;;;;;3.67;2.30;;;;;;;15.79;57.04;100302.81;154038;1101;103214;-76
2021/05/28 07:00:13;;;;;;;3.65;3.10;;;;;;;15.68;57.49;100312.99;153977;1101;103243;-77
2021/05/28 07:03:16;;;;;;;2.80;2.47;;;;;;;15.74;57.32;100313.28;153979;1101;103174;-76
2021/05/28 07:06:20;;;;;;;3.67;2.60;;;;;;;15.94;57.63;100317.09;154014;1101;103250;-76
2021/05/28 07:09:24;;;;;;;5.03;3.13;;;;;;;16.26;57.43;100309.61;154010;1095;103119;-76
2021/05/28 07:12:27;;;;;;;3.60;3.17;;;;;;;16.41;57.17;100305.02;154013;1095;103584;-76
2021/05/28 07:15:31;;;;;;;3.67;2.57;;;;;;;16.56;56.93;100312.23;154006;1101;103148;-76
2021/05/28 07:18:35;;;;;;;3.00;2.63;;;;;;;16.79;56.67;100314.75;154098;1101;103562;-76
2021/05/28 07:21:38;;;;;;;4.70;3.15;;;;;;;17.14;56.72;100318.41;153927;1096;103100;-77
2021/05/28 07:24:43;;;;;;;2.43;2.20;;;;;;;17.33;56.01;100311.52;153953;1101;103106;-78
2021/05/28 07:27:46;;;;;;;2.60;2.30;;;;;;;17.45;55.84;100315.33;153960;1096;103288;-72
2021/05/28 07:30:51;;;;;;;2.87;2.27;;;;;;;17.60;56.08;100312.53;153986;1096;103190;-72
2021/05/28 07:33:54;;;;;;;2.30;2.10;;;;;;;17.87;55.03;100312.72;153958;1096;103189;-72
2021/05/28 07:36:58;;;;;;;2.43;2.17;;;;;;;17.91;55.21;100313.98;153940;1095;103490;-72
2021/05/28 07:40:01;;;;;;;2.80;2.50;;;;;;;17.89;55.10;100310.66;153821;1101;103209;-74
2021/05/28 07:43:05;;;;;;;2.60;2.40;;;;;;;17.84;55.78;100313.11;153798;1101;103187;-73
2021/05/28 07:46:09;;;;;;;3.03;2.73;;;;;;;17.89;55.20;100313.35;153855;1101;103173;-72
2021/05/28 07:49:14;;;;;;;2.37;1.97;;;;;;;17.94;55.00;100319.00;153782;1101;103221;-72
2021/05/28 07:52:18;;;;;;;1.90;1.80;;;;;;;18.02;54.65;100315.30;153957;1096;103129;-72
2021/05/28 07:55:21;;;;;;;1.65;1.50;;;;;;;17.87;54.15;100318.12;153985;1101;103242;-72
2021/05/28 07:58:26;;;;;;;1.63;1.50;;;;;;;17.90;54.20;100312.34;153982;1096;103256;-71
2021/05/28 08:01:30;;;;;;;2.00;1.75;;;;;;;18.00;53.73;100320.89;154079;1096;103223;-71
2021/05/28 08:04:34;;;;;;;2.13;1.77;;;;;;;18.01;54.06;100321.71;154088;1096;103291;-71
2021/05/28 08:07:38;;;;;;;2.15;1.80;;;;;;;18.04;53.93;100311.35;153948;1101;103231;-72
2021/05/28 08:10:42;;;;;;;2.30;1.80;;;;;;;18.12;53.85;100304.95;154000;1101;103195;-72
2021/05/28 08:13:46;;;;;;;2.00;1.77;;;;;;;17.90;53.00;100316.88;154036;1101;103196;-72
2021/05/28 08:16:49;;;;;;;1.80;1.50;;;;;;;17.74;53.48;100313.44;154014;1095;103220;-71
2021/05/28 08:19:53;;;;;;;1.63;1.47;;;;;;;17.60;53.53;100314.40;154912;1096;103306;-72
2021/05/28 08:22:58;;;;;;;2.07;1.60;;;;;;;17.49;53.93;100314.95;153988;1101;103149;-71
2021/05/28 08:26:02;;;;;;;2.80;1.50;;;;;;;17.47;53.48;100320.53;153972;1096;103243;-72
2021/05/28 08:29:07;;;;;;;1.77;1.60;;;;;;;17.46;53.31;100321.58;154012;1101;103217;-72
2021/05/28 08:32:11;;;;;;;1.50;1.40;;;;;;;17.56;53.50;100313.95;153971;1101;103219;-72
2021/05/28 08:35:15;;;;;;;2.55;1.60;;;;;;;17.66;52.88;100321.70;153802;1101;103144;-72
2021/05/28 08:38:19;;;;;;;2.30;1.50;;;;;;;17.59;53.02;100321.67;153834;1096;103129;-72
2021/05/28 08:41:23;;;;;;;1.93;1.53;;;;;;;17.61;52.48;100319.61;153869;1095;103217;-72
2021/05/28 08:44:28;;;;;;;1.90;1.53;;;;;;;17.71;52.81;100323.82;153835;1101;103163;-71
2021/05/28 08:47:33;;;;;;;2.80;1.50;;;;;;;17.92;53.04;100325.61;154036;1096;103193;-71
2021/05/28 08:50:37;;;;;;;2.40;1.50;;;;;;;18.07;52.44;100325.48;153883;1096;103190;-71
2021/05/28 08:53:41;;;;;;;2.70;2.00;;;;;;;18.17;52.51;100332.19;153859;1096;103143;-72
2021/05/28 08:56:46;;;;;;;1.70;1.50;;;;;;;18.25;51.31;100323.91;153839;1101;103147;-72
2021/05/28 08:59:49;;;;;;;1.67;1.40;;;;;;;18.16;52.28;100335.09;153821;1096;103277;-72
2021/05/28 09:02:53;;;;;;;1.90;1.60;;;;;;;18.16;52.18;100329.69;153868;1096;103136;-72
2021/05/28 09:05:59;;;;;;;2.73;1.50;;;;;;;18.18;52.19;100331.14;153934;1101;103557;-72
2021/05/28 09:09:13;;;;;;;2.67;1.70;;;;;;;18.15;52.19;100330.70;153851;1101;103221;-72
2021/05/28 09:12:27;;;;;;;2.87;1.73;;;;;;;18.12;52.05;100325.72;153993;1101;103134;-71
2021/05/28 09:15:31;;;;;;;4.90;2.05;;;;;;;17.88;51.63;100337.84;153860;1095;103191;-72
2021/05/28 09:18:49;;;;;;;1.97;1.40;;;;;;;17.54;52.37;100331.38;153993;1096;103165;-75
2021/05/28 09:22:01;;;;;;;1.53;1.43;;;;;;;17.36;53.22;100334.55;154095;1101;103126;-71
2021/05/28 09:25:06;;;;;;;1.60;1.43;;;;;;;17.43;53.25;100335.45;154014;1096;103221;-71
2021/05/28 09:28:11;;;;;;;1.97;1.60;;;;;;;17.59;52.94;100334.30;153892;1096;103196;-73
2021/05/28 09:31:20;;;;;;;2.07;1.67;;;;;;;17.66;52.73;100335.19;154016;1101;103270;-74
2021/05/28 09:34:29;;;;;;;1.90;1.50;;;;;;;17.80;53.04;100331.56;154081;1101;103221;-74
2021/05/28 09:37:40;;;;;;;1.57;1.40;;;;;;;17.96;53.00;100333.13;153974;1096;103480;-72
2021/05/28 09:40:46;;;;;;;1.63;1.53;;;;;;;18.23;53.21;100322.45;154075;1101;103139;-72
2021/05/28 09:44:05;;;;;;;2.10;1.90;;;;;;;18.63;53.74;100327.98;154081;1101;103099;-72
2021/05/28 09:47:11;;;;;;;1.70;1.60;;;;;;;18.97;53.81;100320.78;153884;1101;103251;-72
2021/05/28 09:50:16;;;;;;;1.77;1.60;;;;;;;19.26;53.03;100321.42;153891;1101;103308;-72
2021/05/28 09:53:43;;;;;;;2.20;2.00;;;;;;;19.40;52.34;100325.80;154107;1095;103051;-72
2021/05/28 09:56:46;;;;;;;2.10;1.90;;;;;;;19.34;52.05;100321.20;153946;1096;103127;-72
2021/05/28 09:59:50;;;;;;;1.90;1.80;;;;;;;19.39;51.99;100329.53;153982;1096;103193;-73
2021/05/28 10:03:11;;;;;;;1.87;1.77;;;;;;;19.54;51.30;100318.49;154015;1096;103521;-72
2021/05/28 10:06:14;;;;;;;;;;;;;;;19.21;50.72;100317.47;154039;1101;103147;-72
2021/05/28 10:09:18;;;;;;;3.10;2.17;;;;;;;19.08;50.76;100322.88;154035;1101;103560;-73
2021/05/28 10:12:23;;;;;;;2.27;1.90;;;;;;;18.89;50.99;100321.81;153990;1101;103119;-72
2021/05/28 10:15:26;;;;;;;2.30;1.80;;;;;;;18.94;51.22;100324.74;153818;1101;103272;-73
2021/05/28 10:18:31;;;;;;;2.63;2.00;;;;;;;18.91;48.89;100317.03;154039;1101;103383;-73
2021/05/28 10:21:35;;;;;;;2.40;2.00;;;;;;;18.80;50.36;100320.34;154013;1096;103572;-73
2021/05/28 10:58:52;;;;;;;4.50;4.10;;;;;;;17.75;50.90;100298.10;154359;1090;103104;-71
2021/05/28 11:01:57;;;;;;;4.73;4.33;;;;;;;18.32;50.77;100288.83;153876;1101;103189;-72
2021/05/28 11:05:00;;;;;;;5.53;5.03;;;;;;;18.66;50.53;100292.42;154441;1101;103104;-71
2021/05/28 11:08:04;;;;;;;5.67;5.17;;;;;;;18.62;49.40;100297.41;153916;1096;103189;-70
2021/05/28 11:11:09;;;;;;;5.00;3.80;;;;;;;18.54;50.01;100289.50;153877;1096;103264;-70
2021/05/28 11:14:17;;;;;;;4.50;3.90;;;;;;;18.94;50.05;100278.78;153887;1096;103158;-70
2021/05/28 11:17:21;;;;;;;5.30;4.80;;;;;;;19.31;46.08;100273.77;153839;1095;103213;-69
2021/05/28 11:20:27;;;;;;;5.00;4.60;;;;;;;19.22;49.01;100277.72;153866;1096;103116;-70
2021/05/28 11:23:43;;;;;;;6.73;4.53;;;;;;;19.34;47.28;100277.91;153959;1096;103246;-70
2021/05/28 11:26:47;;;;;;;5.57;5.07;;;;;;;18.93;48.33;100268.16;153951;1101;103171;-69
2021/05/28 11:29:55;;;;;;;4.20;3.70;;;;;;;18.67;47.55;100274.33;153920;1101;103215;-69
2021/05/28 11:32:58;;;;;;;3.70;3.27;;;;;;;18.77;47.19;100267.50;154041;1096;103098;-70
2021/05/28 11:36:17;;;;;;;3.77;3.47;;;;;;;18.90;47.63;100260.45;153891;1096;103229;-68
2021/05/28 11:39:29;;;;;;;3.70;3.30;;;;;;;19.12;47.74;100267.33;153899;1096;103134;-70
2021/05/28 11:42:33;;;;;;;3.10;2.80;;;;;;;18.98;47.38;100271.91;154039;1096;103402;-69
2021/05/28 11:45:40;;;;;;;3.20;2.90;;;;;;;19.09;47.80;100275.88;153944;1101;103237;-70
2021/05/28 11:48:44;;;;;;;2.90;2.70;;;;;;;19.29;47.36;100272.31;154095;1101;103224;-70
2021/05/28 11:51:56;;;;;;;3.80;3.37;;;;;;;19.05;44.98;100269.19;153907;1096;103214;-69
2021/05/28 11:55:12;;;;;;;5.27;4.77;;;;;;;18.77;46.63;100283.72;153969;1096;103134;-70
2021/05/28 11:58:17;;;;;;;4.80;4.30;;;;;;;18.69;46.86;100283.06;154057;1101;103176;-70
2021/05/28 12:01:20;;;;;;;4.70;4.30;;;;;;;18.75;47.13;100271.45;154006;1096;103217;-70
2021/05/28 12:04:24;;;;;;;3.90;3.60;;;;;;;18.72;46.28;100278.09;154231;1096;103291;-69
2021/05/28 12:07:30;;;;;;;5.70;3.70;;;;;;;18.79;46.69;100268.13;153945;1096;103222;-70
2021/05/28 12:10:34;;;;;;;4.47;4.07;;;;;;;18.85;46.82;100269.20;153837;1096;103221;-71
2021/05/28 12:13:39;;;;;;;5.27;4.80;;;;;;;18.96;47.21;100281.28;153854;1101;103225;-70
2021/05/28 12:16:42;;;;;;;5.07;4.40;;;;;;;18.94;45.80;100277.95;153943;1096;103223;-70
2021/05/28 12:19:46;;;;;;;5.70;4.23;;;;;;;18.80;46.11;100269.83;153849;1096;103216;-70
2021/05/28 12:23:17;;;;;;;4.23;3.83;;;;;;;18.70;46.83;100277.46;153790;1095;103125;-70
2021/05/28 12:26:22;;;;;;;3.93;3.57;;;;;;;18.68;46.48;100270.61;153909;1096;103138;-70
2021/05/28 12:29:28;;;;;;;3.47;3.17;;;;;;;18.54;46.85;100275.16;153809;1095;103144;-69
2021/05/28 12:32:32;;;;;;;4.40;3.23;;;;;;;18.56;46.60;100279.31;153904;1101;103578;-70
2021/05/28 12:35:36;;;;;;;3.30;2.97;;;;;;;18.67;46.76;100280.59;153826;1096;103106;-70
2021/05/28 12:38:41;;;;;;;2.83;2.63;;;;;;;18.67;45.65;100286.00;153797;1096;103110;-71
2021/05/28 12:41:47;;;;;;;3.07;2.80;;;;;;;18.62;46.50;100294.70;153974;1101;103192;-71
2021/05/28 12:45:08;;;;;;;3.93;3.10;;;;;;;18.64;46.20;100289.10;153842;1096;103215;-70
2021/05/28 12:48:12;;;;;;;;;;;;;;;18.85;46.67;100284.59;153883;1096;103242;-71
2021/05/28 12:51:17;;;;;;;3.93;3.50;;;;;;;18.94;46.45;100291.47;153987;1101;103192;-71
2021/05/28 12:54:23;;;;;;;4.30;3.90;;;;;;;18.93;46.19;100295.20;154001;1096;103490;-69
2021/05/28 12:57:26;;;;;;;3.53;3.23;;;;;;;18.87;46.46;100288.75;153873;1095;103129;-71
2021/05/28 13:00:36;;;;;;;3.43;3.13;;;;;;;18.78;44.14;100292.65;153800;1101;103217;-70
2021/05/28 13:03:42;;;;;;;3.83;3.50;;;;;;;18.74;45.87;100281.41;153900;1095;103339;-71
2021/05/28 13:06:49;;;;;;;2.40;2.20;;;;;;;18.97;44.29;100286.45;154020;1096;103171;-71
2021/05/28 13:09:53;;;;;;;1.70;1.60;;;;;;;19.03;44.98;100280.23;154057;1101;103192;-70
2021/05/28 13:13:18;;;;;;;1.30;1.20;;;;;;;19.03;42.08;100287.50;153858;1101;103594;-71
2021/05/28 13:16:30;;;;;;;1.03;0.93;;;;;;;18.75;44.00;100283.09;153818;1101;103579;-71
2021/05/28 13:19:33;;;;;;;2.43;1.40;;;;;;;18.81;42.82;100281.47;153850;1101;103115;-71
2021/05/28 13:22:39;;;;;;;2.43;1.30;;;;;;;19.00;43.11;100286.05;153820;1101;103240;-70
2021/05/28 13:25:43;;;;;;;1.70;1.60;;;;;;;19.07;44.17;100279.80;153747;1096;103215;-73
2021/05/28 13:28:47;;;;;;;1.70;1.60;;;;;;;19.16;44.26;100273.98;153976;1096;103217;-70
2021/05/28 13:31:51;;;;;;;2.00;1.90;;;;;;;19.25;44.00;100269.20;153823;1101;103214;-71
2021/05/28 13:34:56;;;;;;;2.43;2.23;;;;;;;19.22;44.50;100272.30;153818;1101;103142;-71
2021/05/28 13:37:59;;;;;;;2.40;2.20;;;;;;;19.03;43.94;100282.95;153945;1096;103215;-72
2021/05/28 13:41:09;;;;;;;2.83;2.20;;;;;;;18.89;44.16;100270.45;153780;1101;103230;-70
2021/05/28 13:44:12;;;;;;;1.23;1.13;;;;;;;18.93;43.48;100266.28;153843;1101;103135;-71
2021/05/28 13:47:16;;;;;;;1.30;1.20;;;;;;;19.04;43.75;100270.25;153826;1101;103217;-70
2021/05/28 13:50:22;;;;;;;1.77;1.67;;;;;;;19.13;43.28;100269.00;153830;1096;103221;-70
2021/05/28 13:53:26;;;;;;;1.67;1.20;;;;;;;19.09;42.94;100273.17;153898;1096;103131;-71
2021/05/28 13:56:30;;;;;;;1.33;1.20;;;;;;;19.13;41.98;100271.70;154011;1096;103109;-72
2021/05/28 13:59:35;;;;;;;1.90;1.80;;;;;;;19.09;42.88;100270.47;153793;1101;103136;-72
2021/05/28 14:02:41;;;;;;;1.70;1.60;;;;;;;19.12;42.27;100267.33;153904;1096;103275;-72
2021/05/28 14:05:45;;;;;;;3.00;1.70;;;;;;;19.21;41.96;100266.08;153827;1095;103157;-71
2021/05/28 14:08:48;;;;;;;1.90;1.50;;;;;;;19.10;42.49;100269.41;154015;1101;103131;-71
2021/05/28 14:11:52;;;;;;;2.07;1.47;;;;;;;18.88;42.85;100278.76;154077;1101;103100;-71
2021/05/28 14:14:56;;;;;;;1.80;1.60;;;;;;;18.74;43.18;100272.48;154056;1101;103129;-71
2021/05/28 14:17:59;;;;;;;2.83;1.50;;;;;;;18.62;43.16;100275.78;153972;1101;103547;-71
2021/05/28 14:21:03;;;;;;;2.50;1.40;;;;;;;18.56;43.66;100275.79;154007;1096;103123;-72
2021/05/28 14:24:08;;;;;;;4.13;3.60;;;;;;;18.60;43.73;100266.23;154044;1101;103107;-70
2021/05/28 14:27:11;;;;;;;2.55;2.35;;;;;;;18.62;43.65;100269.55;153760;1101;103097;-70
2021/05/28 14:30:17;;;;;;;2.20;1.90;;;;;;;18.54;44.24;100265.18;153836;1101;103661;-70
2021/05/28 14:33:24;;;;;;;2.30;2.10;;;;;;;18.71;44.23;100276.44;153807;1101;103276;-70
2021/05/28 14:36:30;;;;;;;2.40;2.20;;;;;;;18.89;43.91;100264.21;153862;1101;103225;-71
2021/05/28 14:39:34;;;;;;;2.67;2.47;;;;;;;18.94;43.82;100267.14;153835;1095;103151;-71
2021/05/28 14:42:38;;;;;;;2.50;2.30;;;;;;;18.89;43.60;100265.04;153911;1095;103132;-70
2021/05/28 14:45:42;;;;;;;3.20;2.30;;;;;;;18.77;43.83;100267.50;153823;1095;103158;-70
2021/05/28 14:48:45;;;;;;;3.03;2.50;;;;;;;18.62;43.90;100267.68;153793;1101;103212;-70
2021/05/28 14:51:49;;;;;;;3.63;2.43;;;;;;;18.69;44.03;100266.84;153930;1096;103224;-70